Blowing Sand Mountains, Nevada Weather observations

Data are for observation ending at time listed.
 Day   Time    Ave.   Ave.  Ave.  Vector   Max.   Stn.    Total    Solar   Ave.  
  of    of     Air    Rel.  Wind   Wind    Wind   Baro.  Precip.   Rad.    Soil  
Year   Day     Temp.  Hum.  Speed  Dir.    Gust   Pres.                    Temp. 
2014   (PST)    F      %     mph   deg.    mph     mb.     in.     W/m2     F   
------------------------------------------------------------------------------
 303   12:30   68.7    14    1.6   306      4.0    881.3     0.00     540     50.0
 303   12:40   68.7    14    2.0   281      4.0    881.1     0.00     495     50.0
 303   12:50   69.8    13    1.6   286      3.9    880.9     0.00     651     50.0
 303   13:00   70.5    13    2.0   283      3.6    880.7     0.00     617     50.1
 303   13:10   72.7    12    0.6   291      2.5    880.5     0.00     554     50.0
 303   13:20   72.3    12    1.6   301      4.5    880.2     0.00     556     50.1
 303   13:30   72.4    12    2.0   308      4.7    880.0     0.00     428     50.1
 303   13:40   71.9    12    2.0   280      3.7    879.8     0.00     382     50.1
 303   13:50   72.9    12    1.9   284      3.6    879.7     0.00     542     50.1
 303   14:00   73.5    11    2.1   294      3.6    879.5     0.00     483     50.2
 303   14:10   73.1    12    1.9   302      3.1    879.3     0.00     286     50.2
 303   14:20   72.7    12    1.1   336      2.8    879.1     0.00     262     50.3
 303   14:30   74.6    11    0.4   293      2.0    878.9     0.00     427     50.3
 303   14:40   75.2    11    2.1   303      3.4    878.8     0.00     343     50.4
 303   14:50   73.1    12    4.2   293      6.6    878.7     0.00     159     50.5
 303   15:00   71.7    13    6.8   291     10.7    878.6     0.00     166     50.5
 303   15:10   71.3    13    7.5   316     12.1    878.6     0.00     134     50.5
 303   15:20   70.8    14    6.0   318      8.9    878.6     0.00     123     50.6
 303   15:30   71.1    14    5.2   342      8.5    878.5     0.00     130     50.6
 303   15:40   71.5    14    3.1   350      6.9    878.5     0.00     121     50.7
 303   15:50   70.3    14    5.2   286      7.5    878.5     0.00      97     50.8
 303   16:00   69.1    16    4.7   286      5.7    878.4     0.00      90     50.9
 303   16:10   68.3    16    4.8   288      7.3    878.3     0.00      67     51.0
 303   16:20   67.4    17    4.8   310      6.5    878.2     0.00      48     51.0
 303   16:30   66.6    18    2.4   293      4.7    878.2     0.00      37     51.1
 303   16:40   65.5    19    2.2   313      3.7    878.0     0.00      21     51.2
 303   16:50   64.5    20    1.2   308      3.4    878.0     0.00       7     51.2
 303   17:00   63.5    21    3.7   191      8.3    878.0     0.00       2     51.3
 303   17:10   62.7    22    3.6   211      5.3    878.0     0.00       1     51.4
 303   17:20   61.8    23    3.0   193      4.6    878.0     0.00       0     51.5
 303   17:30   61.5    23    2.0   163      4.6    878.0     0.00       0     51.5
 303   17:40   60.9    23    4.4   116      6.6    878.0     0.00       0     51.6
 303   17:50   60.3    24    3.4   166      6.9    878.0     0.00       0     51.7
 303   18:00   60.0    24    2.0   189      4.2    878.1     0.00       0     51.7
 303   18:10   59.3    25    1.5   139      2.4    878.1     0.00       0     51.8
 303   18:20   57.6    26    2.9    97      4.2    878.1     0.00       0     51.9
 303   18:30   56.6    27    3.0   119      4.0    878.0     0.00       0     51.9
 303   18:40   56.0    28    2.2   121      3.9    878.1     0.00       0     52.0
 303   18:50   55.1    29    2.0   114      3.1    878.1     0.00       0     52.1
 303   19:00   54.0    30    1.4    76      3.1    878.1     0.00       0     52.1
 303   19:10   54.1    29    3.1    72      4.2    878.1     0.00       0     52.2
 303   19:20   54.4    29    2.4    64      4.2    878.0     0.00       0     52.2
 303   19:30   55.0    29    2.3   119      4.1    877.9     0.00       0     52.3
 303   19:40   54.0    30    3.7   169      5.0    877.9     0.00       0     52.3
 303   19:50   52.9    31    2.9   172      4.7    878.0     0.00       0     52.3
 303   20:00   52.1    32    1.4    44      3.1    878.0     0.00       0     52.4
 303   20:10   52.1    32    1.5    88      3.1    878.0     0.00       0     52.4
 303   20:20   51.8    32    0.6    74      2.3    878.0     0.00       0     52.5
 303   20:30   52.5    32    2.3   103      5.0    877.9     0.00       0     52.5
 303   20:40   52.6    31    1.1    93      4.3    877.9     0.00       0     52.5
 303   20:50   52.0    31    3.5   125      4.5    878.0     0.00       0     52.5
 303   21:00   51.3    32    2.5   207      3.7    878.2     0.00       0     52.6
 303   21:10   50.3    34    2.0   280      3.1    878.2     0.00       0     52.6
 303   21:20   49.3    36    2.5    15      3.7    878.3     0.00       0     52.6
 303   21:30   48.8    36    1.5    83      2.9    878.3     0.00       0     52.7
 303   21:40   48.7    36    2.0   145      3.3    878.3     0.00       0     52.7
 303   21:50   47.6    37    2.4   180      5.4    878.3     0.00       0     52.7
 303   22:00   46.3    39    1.7   279      5.9    878.2     0.00       0     52.7
 303   22:10   46.2    40    1.8   115      4.4    878.1     0.00       0     52.8
 303   22:20   45.6    40    3.2   104      5.3    878.2     0.00       0     52.8
 303   22:30   46.1    39    3.2   103      5.3    878.1     0.00       0     52.8
 303   22:40   47.0    38    1.7    66      4.7    877.9     0.00       0     52.8
 303   22:50   46.6    39    1.0   340      3.4    877.9     0.00       0     52.8
 303   23:00   45.8    38    2.5    21      5.6    877.8     0.00       0     52.8
 303   23:10   44.1    42    1.0   107      2.7    877.8     0.00       0     52.8
 303   23:20   43.9    43    1.1   133      2.0    877.8     0.00       0     52.8
 303   23:30   44.2    42    3.6   146      6.1    877.8     0.00       0     52.8
 303   23:40   43.9    42    1.8    35      4.2    877.7     0.00       0     52.8
 303   23:50   44.7    41    1.4    74      3.4    877.6     0.00       0     52.8
 304    0:00   45.0    40    3.5   219      5.0    877.5     0.00       0     52.8
 304    0:10   46.0    40    2.9   237      4.9    877.6     0.00       0     52.8
 304    0:20   45.5    40    1.9    26      3.5    877.6     0.00       0     52.8
 304    0:30   45.0    42    3.7    57      4.7    877.5     0.00       0     52.8
 304    0:40   46.3    39    3.8    85      4.8    877.4     0.00       0     52.8
 304    0:50   46.1    39    4.4    96      5.8    877.2     0.00       0     52.8
 304    1:00   45.9    40    1.7   292      3.9    877.2     0.00       0     52.8
 304    1:10   45.3    40    1.0   291      3.5    877.2     0.00       0     52.8
 304    1:20   43.0    43    1.2    60      4.4    877.1     0.00       0     52.8
 304    1:30   42.4    45    0.4   178      1.5    877.2     0.00       0     52.8
 304    1:40   42.5    44    1.6   210      2.6    877.1     0.00       0     52.7
 304    1:50   40.6    47    2.9    98      3.9    876.9     0.00       0     52.7
 304    2:00   40.2    48    2.1   180      4.2    876.9     0.00       0     52.7
 304    2:10   39.6    48    3.4   233      5.8    876.9     0.00       0     52.7
 304    2:20   39.9    48    2.2   344      4.7    876.8     0.00       0     52.7
 304    2:30   39.8    49    2.1    37      3.6    876.6     0.00       0     52.6
 304    2:40   40.4    47    0.9    68      3.1    876.5     0.00       0     52.6
 304    2:50   39.7    48    0.8   152      1.5    876.4     0.00       0     52.6
 304    3:00   40.0    49    2.2   128      3.8    876.2     0.00       0     52.6
 304    3:10   40.7    47    0.4   159      1.8    876.3     0.00       0     52.6
 304    3:20   39.3    48    0.6   235      2.6    876.4     0.00       0     52.6
 304    3:30   38.7    49    1.9   142      3.7    876.3     0.00       0     52.5
 304    3:40   39.7    48    2.2   108      3.7    876.1     0.00       0     52.5
 304    3:50   39.1    48    0.4   234      1.9    876.2     0.00       0     52.5
 304    4:00   38.3    50    1.0   253      2.9    876.2     0.00       0     52.4
 304    4:10   38.3    50    1.5   282      3.9    876.2     0.00       0     52.4
 304    4:20   37.5    51    0.9     6      2.0    876.2     0.00       0     52.4
 304    4:30   37.3    52    1.0    74      1.8    876.1     0.00       0     52.4
 304    4:40   38.1    51    0.1    80      0.8    876.1     0.00       0     52.4
 304    4:50   38.2    50    0.2    84      0.9    876.0     0.00       0     52.3
 304    5:00   37.5    51    0.1    21      1.1    876.2     0.00       0     52.3
 304    5:10   36.9    52    1.2   269      3.7    876.2     0.00       0     52.3
 304    5:20   36.6    52    2.1   208      3.1    876.1     0.00       0     52.2
 304    5:30   36.3    52    1.5   158      3.0    876.0     0.00       0     52.2
 304    5:40   36.1    53    1.3    54      2.0    876.0     0.00       0     52.2
 304    5:50   36.0    54    0.4    41      1.8    876.0     0.00       0     52.1
 304    6:00   37.8    52    1.7    67      2.9    876.0     0.00       0     52.1
 304    6:10   38.3    50    1.2   115      2.4    875.9     0.00       0     52.1
 304    6:20   38.4    50    0.8   206      3.2    875.9     0.00       4     52.0
 304    6:30   37.3    51    3.4   222      5.5    876.1     0.00       4     52.0
 304    6:40   37.1    51    1.3   355      2.6    876.3     0.00       7     52.0
 304    6:50   36.4    53    3.3    67      4.2    876.3     0.00      17     51.9
 304    7:00   37.4    52    1.2   109      2.4    876.4     0.00      27     51.9
 304    7:10   37.9    52    1.2   232      4.7    876.5     0.00      38     51.9
 304    7:20   38.1    51    1.5   196      3.0    876.6     0.00      53     51.9
 304    7:30   38.7    50    1.9    51      2.8    876.6     0.00      78     51.8
 304    7:40   39.4    50    1.5    56      2.6    876.7     0.00     106     51.8
 304    7:50   41.2    48    0.8    79      3.3    876.7     0.00     135     51.7
 304    8:00   44.2    43    1.7    63      2.6    876.6     0.00     267     51.7
 304    8:10   48.8    35    1.9    59      3.3    876.5     0.00     275     51.6
 304    8:20   51.8    31    0.7    95      1.9    876.5     0.00     371     51.6
 304    8:30   55.0    27    0.4   236      1.8    876.3     0.00     415     51.5
 304    8:40   55.0    27    1.3   282      2.9    876.2     0.00     398     51.5
 304    8:50   53.0    30    3.2   288      4.2    876.1     0.00     421     51.5
 304    9:00   53.7    29    1.4   296      2.1    876.0     0.00     486     51.5
 304    9:10   55.6    26    1.2   293      2.3    875.8     0.00     502     51.5
 304    9:20   57.2    24    2.7   304      4.0    875.6     0.00     566     51.4
 304    9:30   58.7    22    4.3   287      7.7    875.5     0.00     488     51.4
 304    9:40   61.6    18    7.2   204     16.4    875.3     0.00     342     51.4
 304    9:50   65.9    14   12.6   139     20.1    875.1     0.00     411     51.4
 304   10:00   67.5    13   12.0   137     16.7    875.0     0.00     584     51.3
 304   10:10   68.2    13   13.8   138     20.6    874.9     0.00     590     51.3
 304   10:20   68.6    13   13.4   140     19.4    874.8     0.00     599     51.3
 304   10:30   68.8    12   15.4   142     19.7    874.6     0.00     609     51.2
 304   10:40   68.7    13   13.3   128     18.0    874.5     0.00     619     51.2
 304   10:50   69.1    12   12.9   130     20.9    874.3     0.00     629     51.2
 304   11:00   70.3    12   15.1   142     23.2    874.1     0.00     636     51.2
 304   11:10   71.1    11   13.6   141     23.4    873.9     0.00     643     51.2
 304   11:20   71.3    11   14.7   145     22.5    873.7     0.00     646     51.2
 304   11:30   71.6    11   15.0   138     24.1    873.4     0.00     648     51.2
 304   11:40   71.7    11   14.1   131     21.5    873.1     0.00     648     51.2
 304   11:50   71.6    11   13.3   121     19.8    872.9     0.00     649     51.2
 304   12:00   72.5    10   14.3   141     21.9    872.6     0.00     645     51.2
 304   12:10   72.6    10   16.4   138     23.7    872.3     0.00     642     51.2
 304   12:20   72.8    10   16.8   146     27.0    872.1     0.00     636     51.2

Return to Blowing Sand Mountains graphs page.


Western Regional Climate Center,wrcc@dri.edu